Terminal Aerodrome Forecast
Issued by NWS Detroit/Pontiac, MI

Home | Current Version | Previous Version | Text Only | Print | Product List | Glossary On
Versions: 1 2 3 4 5 6 7 8 9 10 11 12 13 14 15 16 17 18 19 20 21 22 23 24
000
FTUS43 KDTX 242323
TAFDTW
TAF
KDTW 242323Z 2500/2606 20013KT P6SM SCT120 BKN200 WS015/24045KT
     FM250900 23008KT P6SM SCT028 BKN035 OVC100
     FM251300 28010KT P6SM SCT018 OVC025
     FM251700 30013G20KT P6SM BKN035
     FM260400 30013KT P6SM SCT040=

USA.gov is the U.S. government's official web portal to all federal, state and local government web resources and services.